Time;durP1;ratioP1;P1;durP2;ratioP2;P2;SDS_P1;SDS_P2;PMS_P1;PMS_P2;Temp;Humidity;BMP_temperature;BMP_pressure;BME280_temperature;BME280_humidity;BME280_pressure;Samples;Min_cycle;Max_cycle;Signal;HPM_P1;HPM_P2
2022/11/20 00:00:33;;;;;;;;;6.75;6.00;;;;;9.89;64.83;100708.16;5016130;28;45518;-75
2022/11/20 00:02:58;;;;;;;;;5.00;5.00;;;;;9.82;64.79;100702.53;4998296;28;45970;-75
2022/11/20 00:05:24;;;;;;;;;3.25;3.00;;;;;9.81;64.83;100706.06;5015822;28;47304;-74
2022/11/20 00:07:49;;;;;;;;;6.00;5.25;;;;;9.83;64.51;100701.56;5015853;28;46401;-74
2022/11/20 00:10:15;;;;;;;;;7.50;7.00;;;;;9.82;64.49;100713.00;5015898;28;45681;-73
2022/11/20 00:16:05;;;;;;;;;6.50;6.00;;;;;9.78;64.74;100701.03;5015785;28;45710;-74
2022/11/20 00:18:32;;;;;;;;;6.00;5.00;;;;;9.81;64.59;100703.47;5016202;28;46122;-74
2022/11/20 00:21:05;;;;;;;;;5.00;5.00;;;;;9.82;64.28;100707.75;5015967;28;45658;-75
2022/11/20 00:23:31;;;;;;;;;6.25;5.25;;;;;9.77;64.33;100690.69;5016349;28;45607;-75
2022/11/20 00:26:00;;;;;;;;;4.00;4.00;;;;;9.73;64.20;100699.66;5015605;28;45638;-74
2022/11/20 00:28:25;;;;;;;;;6.50;3.50;;;;;9.74;64.21;100711.78;5015840;28;46128;-74
2022/11/20 00:30:51;;;;;;;;;6.00;5.00;;;;;9.71;64.43;100718.09;5015232;28;45840;-73
2022/11/20 00:33:16;;;;;;;;;5.25;5.00;;;;;9.68;64.53;100713.88;5015351;28;45731;-74
2022/11/20 00:35:41;;;;;;;;;6.00;5.00;;;;;9.66;64.15;100720.16;5015344;28;46205;-73
2022/11/20 00:38:07;;;;;;;;;5.25;3.50;;;;;9.65;64.49;100714.09;5015565;28;45585;-72
2022/11/20 00:40:32;;;;;;;;;4.75;4.75;;;;;9.64;64.32;100717.66;5015349;28;45686;-73
2022/11/20 00:42:57;;;;;;;;;3.00;3.00;;;;;9.56;64.17;100711.22;5015686;28;45569;-73
2022/11/20 00:45:23;;;;;;;;;4.75;4.75;;;;;9.59;64.40;100718.88;5015365;28;45804;-74
2022/11/20 00:47:48;;;;;;;;;5.00;4.00;;;;;9.56;64.16;100716.44;5015062;28;46180;-74
2022/11/20 00:50:13;;;;;;;;;3.00;3.00;;;;;9.52;64.43;100721.06;5014441;28;45541;-74
2022/11/20 00:52:39;;;;;;;;;5.25;5.25;;;;;9.51;64.44;100726.38;5015673;28;45646;-74
2022/11/20 00:55:05;;;;;;;;;3.00;2.00;;;;;9.50;64.25;100722.09;5015156;28;47297;-73
2022/11/20 00:57:31;;;;;;;;;4.00;3.00;;;;;9.50;64.18;100714.25;5015180;28;45756;-74
2022/11/20 00:59:56;;;;;;;;;3.00;3.00;;;;;9.49;64.30;100723.03;5015282;28;45847;-73
2022/11/20 01:02:22;;;;;;;;;5.00;3.50;;;;;9.49;64.28;100725.66;5015584;28;45670;-73
2022/11/20 01:04:48;;;;;;;;;3.00;3.00;;;;;9.47;64.11;100722.28;5014834;28;46627;-75
2022/11/20 01:07:13;;;;;;;;;2.00;2.00;;;;;9.43;64.14;100723.44;5015164;28;46405;-74
2022/11/20 01:09:38;;;;;;;;;3.50;3.00;;;;;9.26;64.23;100700.97;5015091;28;45656;-74
2022/11/20 01:12:04;;;;;;;;;2.50;2.25;;;;;9.32;64.35;100720.66;5015073;28;46013;-76
2022/11/20 01:14:29;;;;;;;;;4.50;2.75;;;;;9.25;64.43;100726.28;5014821;28;47177;-73
2022/11/20 01:16:55;;;;;;;;;2.75;2.25;;;;;9.26;64.66;100717.50;5014872;28;46024;-74
2022/11/20 01:19:22;;;;;;;;;5.00;3.00;;;;;9.23;64.51;100722.91;5014854;28;45596;-74
2022/11/20 01:21:51;;;;;;;;;4.00;3.00;;;;;9.19;64.37;100721.44;4997053;28;45619;-73
2022/11/20 01:24:18;;;;;;;;;5.25;2.00;;;;;9.18;64.35;100729.38;5014828;28;45654;-74
2022/11/20 01:26:45;;;;;;;;;5.00;5.00;;;;;9.16;64.62;100724.25;5014978;28;46880;-73
2022/11/20 01:32:45;;;;;;;;;2.00;2.00;;;;;9.16;64.73;100723.41;5013179;28;46189;-75
2022/11/20 01:35:11;;;;;;;;;5.25;3.50;;;;;9.15;64.79;100716.50;5014702;28;46892;-74
2022/11/20 01:37:36;;;;;;;;;4.25;2.75;;;;;9.10;64.44;100715.97;5014735;28;45458;-72
2022/11/20 01:40:02;;;;;;;;;2.75;2.75;;;;;9.09;64.78;100714.28;4996547;28;45876;-72
2022/11/20 01:45:49;;;;;;;;;3.00;2.25;;;;;9.09;64.89;100711.66;5013764;28;46318;-75
2022/11/20 01:48:14;;;;;;;;;3.00;2.00;;;;;9.09;64.91;100709.03;5014475;28;46164;-74
2022/11/20 01:50:41;;;;;;;;;3.00;2.25;;;;;9.07;64.92;100703.91;5014761;28;45849;-74
2022/11/20 01:53:13;;;;;;;;;3.00;3.00;;;;;9.08;64.92;100705.59;5014394;28;45754;-73
2022/11/20 01:55:48;;;;;;;;;2.00;2.00;;;;;9.06;64.95;100712.72;5014215;28;46540;-73
2022/11/20 01:58:16;;;;;;;;;5.00;3.50;;;;;9.04;64.70;100711.97;5013222;28;46435;-73
2022/11/20 02:00:41;;;;;;;;;3.00;3.00;;;;;9.02;64.72;100700.75;5014363;28;45643;-73
2022/11/20 02:03:13;;;;;;;;;3.00;3.00;;;;;9.01;64.78;100700.88;5014582;28;45540;-74
2022/11/20 02:05:47;;;;;;;;;4.50;2.75;;;;;8.97;64.51;100694.97;5013955;28;46755;-74
2022/11/20 02:08:13;;;;;;;;;5.25;2.25;;;;;9.00;64.76;100705.25;5014143;28;46518;-75
2022/11/20 02:10:39;;;;;;;;;6.00;4.00;;;;;8.95;64.65;100703.88;5014344;28;45771;-73
2022/11/20 02:15:49;;;;;;;;;5.75;2.50;;;;;8.82;64.67;100683.72;5013820;28;45712;-74
2022/11/20 02:18:18;;;;;;;;;3.00;3.00;;;;;8.89;64.82;100697.25;4996054;28;48132;-73
2022/11/20 02:20:46;;;;;;;;;3.00;2.00;;;;;8.87;64.88;100696.50;4996255;28;45999;-74
2022/11/20 02:23:13;;;;;;;;;3.00;2.00;;;;;8.86;64.72;100694.81;5014209;28;45630;-73
2022/11/20 02:25:40;;;;;;;;;2.00;2.00;;;;;8.80;64.91;100684.75;5014082;28;45668;-74
2022/11/20 02:28:06;;;;;;;;;2.50;2.00;;;;;8.82;64.82;100696.78;5013616;28;46229;-73
2022/11/20 02:30:31;;;;;;;;;2.75;2.75;;;;;8.81;64.88;100692.50;5013494;28;45455;-74
2022/11/20 02:32:58;;;;;;;;;3.00;2.00;;;;;8.79;64.88;100691.78;5013910;28;45670;-74
2022/11/20 02:35:23;;;;;;;;;5.25;3.00;;;;;8.81;65.03;100692.50;5014333;28;47807;-72
2022/11/20 02:37:52;;;;;;;;;3.00;2.00;;;;;8.81;65.04;100682.03;5014370;28;45545;-74
2022/11/20 02:40:18;;;;;;;;;2.50;2.00;;;;;8.83;65.04;100677.56;5013522;28;45666;-74
2022/11/20 02:42:44;;;;;;;;;2.50;1.50;;;;;8.85;65.00;100685.31;5014082;28;45743;-74
2022/11/20 02:48:31;;;;;;;;;2.50;2.00;;;;;8.80;64.67;100666.44;5013222;28;46244;-73
2022/11/20 02:50:57;;;;;;;;;1.00;1.00;;;;;8.77;64.81;100669.28;5013289;28;45756;-74
2022/11/20 02:53:22;;;;;;;;;3.00;2.00;;;;;8.74;64.95;100662.50;5013314;28;45699;-73
2022/11/20 02:55:48;;;;;;;;;2.50;2.25;;;;;8.73;64.96;100650.34;5013159;28;45532;-74
2022/11/20 02:58:13;;;;;;;;;1.00;1.00;;;;;8.65;64.88;100631.69;5013712;28;46205;-74
2022/11/20 03:00:38;;;;;;;;;1.75;1.25;;;;;8.71;64.88;100648.75;5013425;28;45643;-73
2022/11/20 03:03:04;;;;;;;;;1.75;1.25;;;;;8.69;65.03;100638.41;5013779;28;45608;-74
2022/11/20 03:05:29;;;;;;;;;2.00;1.00;;;;;8.70;64.95;100640.09;5013466;28;45579;-74
2022/11/20 03:07:54;;;;;;;;;1.00;1.00;;;;;8.73;64.98;100641.69;5012862;28;46182;-75
2022/11/20 03:10:20;;;;;;;;;1.75;1.75;;;;;8.72;65.29;100637.38;5013681;28;45920;-73
2022/11/20 03:12:45;;;;;;;;;2.25;2.00;;;;;8.73;65.27;100636.47;5013400;28;45701;-74
2022/11/20 03:18:32;;;;;;;;;1.00;1.00;;;;;8.72;65.30;100626.94;5013975;28;46117;-72
2022/11/20 03:20:58;;;;;;;;;2.00;1.00;;;;;8.72;65.50;100626.94;5014261;28;45823;-73
2022/11/20 03:23:24;;;;;;;;;2.00;1.00;;;;;8.70;65.36;100623.56;5013939;28;45771;-73
2022/11/20 03:25:50;;;;;;;;;1.25;0.50;;;;;8.61;65.34;100601.50;5012970;28;45902;-73
2022/11/20 03:28:15;;;;;;;;;3.25;2.00;;;;;8.59;65.34;100597.28;5013122;28;46411;-73
2022/11/20 03:34:04;;;;;;;;;1.50;1.50;;;;;8.72;65.53;100612.09;5011236;28;45726;-73
2022/11/20 03:36:32;;;;;;;;;2.00;2.00;;;;;8.73;65.66;100618.16;5012954;28;46346;-74
2022/11/20 03:38:57;;;;;;;;;1.50;1.00;;;;;8.70;65.60;100605.28;5013120;28;46228;-73
2022/11/20 03:41:28;;;;;;;;;1.50;1.50;;;;;8.75;65.72;100609.28;5013224;28;45613;-73
2022/11/20 03:50:19;;;;;;;;;1.50;1.00;;;;;8.81;65.55;100601.06;5012952;28;46025;-73
2022/11/20 03:52:45;;;;;;;;;2.25;2.25;;;;;8.79;65.49;100591.66;5012923;28;45742;-73
2022/11/20 03:55:10;;;;;;;;;1.25;0.75;;;;;8.87;65.54;100605.06;5012105;28;45770;-72
2022/11/20 03:57:36;;;;;;;;;1.00;1.00;;;;;8.88;65.27;100601.53;5012769;28;45700;-74
2022/11/20 04:00:01;;;;;;;;;2.00;2.00;;;;;8.92;65.14;100603.00;5012853;28;45613;-73
2022/11/20 04:02:26;;;;;;;;;2.75;2.00;;;;;8.84;65.08;100581.75;5012526;28;45666;-73
2022/11/20 04:04:52;;;;;;;;;5.00;1.75;;;;;8.97;65.26;100600.06;5012780;28;45637;-74
2022/11/20 04:07:17;;;;;;;;;1.75;1.00;;;;;8.93;65.30;100593.38;5014283;28;45701;-73
2022/11/20 04:09:42;;;;;;;;;2.00;1.50;;;;;8.95;65.06;100602.81;5015849;28;46302;-73
2022/11/20 04:12:08;;;;;;;;;2.00;1.00;;;;;8.89;65.09;100594.53;5016127;28;45756;-73
2022/11/20 04:14:33;;;;;;;;;2.75;1.50;;;;;8.92;65.42;100599.53;5015815;28;45886;-75
2022/11/20 04:16:58;;;;;;;;;1.00;1.00;;;;;8.88;65.17;100590.22;5015404;28;46539;-74
2022/11/20 04:19:24;;;;;;;;;5.00;1.50;;;;;8.93;65.01;100593.38;5015765;28;46322;-73
2022/11/20 04:21:49;;;;;;;;;3.00;2.25;;;;;8.92;65.22;100591.69;5015905;28;45672;-73
2022/11/20 04:24:14;;;;;;;;;3.00;1.00;;;;;8.93;65.14;100581.16;5015782;28;45892;-74
2022/11/20 04:26:40;;;;;;;;;1.75;1.25;;;;;8.88;65.35;100575.41;5015974;28;46401;-73
2022/11/20 04:29:06;;;;;;;;;2.00;1.75;;;;;8.94;65.11;100579.38;5015377;28;47188;-74
2022/11/20 04:34:53;;;;;;;;;1.75;1.50;;;;;8.92;64.97;100581.25;5014475;28;45697;-74
2022/11/20 04:37:18;;;;;;;;;0.75;0.75;;;;;8.87;65.16;100578.09;4997705;28;46552;-73
2022/11/20 04:39:43;;;;;;;;;2.25;2.00;;;;;8.87;65.20;100584.16;5016023;28;45755;-74
2022/11/20 04:44:53;;;;;;;;;1.50;1.00;;;;;8.82;65.34;100581.84;5015472;28;45692;-72
2022/11/20 04:47:19;;;;;;;;;2.00;2.00;;;;;8.87;65.29;100578.94;5015167;28;46476;-74
2022/11/20 04:49:44;;;;;;;;;3.00;2.25;;;;;8.86;65.25;100585.09;5015241;28;46568;-74
2022/11/20 04:52:09;;;;;;;;;1.00;1.00;;;;;8.87;65.11;100575.47;5015777;28;45859;-72
2022/11/20 04:54:35;;;;;;;;;1.00;1.00;;;;;8.87;65.08;100572.88;5015197;28;45556;-74
2022/11/20 04:57:00;;;;;;;;;1.00;1.00;;;;;8.86;65.31;100577.25;5015609;28;46761;-73
2022/11/20 04:59:25;;;;;;;;;1.00;1.00;;;;;8.83;65.29;100577.47;5015281;28;46000;-73
2022/11/20 05:05:12;;;;;;;;;2.00;2.00;;;;;8.82;65.22;100567.94;5015615;28;45767;-73
2022/11/20 05:07:38;;;;;;;;;3.00;2.00;;;;;8.85;65.16;100576.41;5015211;28;46481;-73
2022/11/20 05:10:03;;;;;;;;;2.00;2.00;;;;;8.85;65.37;100560.75;5015488;28;45973;-74
2022/11/20 05:12:29;;;;;;;;;3.00;1.50;;;;;8.89;65.16;100566.63;5015547;28;45696;-73
2022/11/20 05:14:54;;;;;;;;;2.50;1.25;;;;;8.90;65.06;100557.84;5015213;28;45592;-72
2022/11/20 05:20:41;;;;;;;;;3.00;2.00;;;;;8.91;64.80;100562.13;5015355;28;46125;-71
2022/11/20 05:23:06;;;;;;;;;2.25;1.75;;;;;8.90;64.88;100557.00;4997474;28;45580;-73
2022/11/20 05:25:32;;;;;;;;;2.00;1.50;;;;;8.86;65.08;100556.34;5015697;28;45746;-73
2022/11/20 05:27:57;;;;;;;;;1.50;1.00;;;;;8.88;64.77;100551.88;5015250;28;45602;-73
2022/11/20 05:30:22;;;;;;;;;5.00;2.00;;;;;8.87;65.00;100560.66;5015029;28;45675;-73
2022/11/20 05:36:11;;;;;;;;;2.25;2.00;;;;;8.86;64.97;100558.97;5013025;28;45738;-74
2022/11/20 05:38:36;;;;;;;;;3.00;2.00;;;;;8.88;64.95;100549.28;5014883;28;45689;-74
2022/11/20 05:41:06;;;;;;;;;2.00;1.75;;;;;8.89;64.99;100556.19;5014423;28;46070;-74
2022/11/20 05:43:33;;;;;;;;;2.00;1.00;;;;;8.87;64.82;100538.91;5014281;28;45697;-74
2022/11/20 05:45:59;;;;;;;;;2.50;2.00;;;;;8.78;64.73;100533.34;5014540;28;45576;-74
2022/11/20 05:48:25;;;;;;;;;4.00;4.00;;;;;8.81;64.96;100538.38;5014202;28;46824;-73
2022/11/20 05:50:50;;;;;;;;;2.25;2.25;;;;;8.85;64.73;100545.06;4996909;28;47329;-74
2022/11/20 05:53:15;;;;;;;;;3.50;2.00;;;;;8.87;64.65;100544.13;5014350;28;45673;-72
2022/11/20 05:55:41;;;;;;;;;3.50;2.25;;;;;8.88;64.81;100545.81;5014879;28;45854;-73
2022/11/20 05:58:06;;;;;;;;;3.00;2.00;;;;;8.93;64.82;100555.03;5013217;28;45693;-73
2022/11/20 06:00:32;;;;;;;;;3.00;2.00;;;;;8.86;64.91;100545.91;5014263;28;46288;-72
2022/11/20 06:06:19;;;;;;;;;2.00;2.00;;;;;8.94;64.70;100546.25;5014128;28;45484;-75
2022/11/20 06:08:45;;;;;;;;;5.75;2.50;;;;;8.91;64.72;100533.38;5014019;28;46880;-74
2022/11/20 06:11:12;;;;;;;;;3.00;3.00;;;;;8.92;64.66;100535.06;4996163;28;46770;-74
2022/11/20 06:13:38;;;;;;;;;2.75;2.75;;;;;9.00;64.70;100539.78;5014546;28;45634;-73
2022/11/20 06:16:04;;;;;;;;;5.25;4.00;;;;;9.01;64.73;100537.09;5014199;28;45865;-72
2022/11/20 06:21:51;;;;;;;;;2.50;2.00;;;;;9.05;64.63;100532.50;5013835;28;46247;-72
2022/11/20 06:24:17;;;;;;;;;2.00;2.00;;;;;9.11;64.50;100540.78;5013831;28;45985;-74
2022/11/20 06:26:42;;;;;;;;;5.25;3.50;;;;;9.15;64.73;100525.72;5014006;28;45541;-73
2022/11/20 06:29:07;;;;;;;;;3.00;2.00;;;;;9.16;64.42;100522.16;5013174;28;46657;-72
2022/11/20 06:31:34;;;;;;;;;3.50;3.00;;;;;9.12;64.66;100520.69;5013367;28;47470;-73
2022/11/20 06:34:00;;;;;;;;;6.00;4.50;;;;;9.17;64.45;100535.16;5013990;28;45716;-74
2022/11/20 06:36:26;;;;;;;;;3.00;2.00;;;;;9.16;64.62;100525.63;5013671;28;45434;-72
2022/11/20 06:38:51;;;;;;;;;6.00;3.00;;;;;9.16;64.51;100533.47;5013618;28;47393;-73
2022/11/20 06:41:19;;;;;;;;;4.50;3.00;;;;;9.18;64.38;100522.88;5013879;28;45999;-72
2022/11/20 06:43:45;;;;;;;;;3.00;3.00;;;;;9.14;64.71;100510.97;4995865;28;45943;-73
2022/11/20 06:46:12;;;;;;;;;6.50;3.50;;;;;9.20;64.47;100529.69;4995676;28;45913;-75
2022/11/20 06:51:59;;;;;;;;;6.00;5.25;;;;;9.23;64.50;100519.03;5013707;28;46115;-73
2022/11/20 06:54:24;;;;;;;;;14.75;14.00;;;;;9.24;64.28;100517.25;4995580;28;45664;-73
2022/11/20 06:56:49;;;;;;;;;8.00;7.50;;;;;9.23;64.33;100529.47;5013523;28;45515;-74
2022/11/20 06:59:14;;;;;;;;;7.50;5.00;;;;;9.18;64.44;100515.88;5013787;28;45698;-74
2022/11/20 07:01:40;;;;;;;;;4.50;3.00;;;;;9.27;64.50;100528.34;5013349;28;45619;-73
2022/11/20 07:07:28;;;;;;;;;4.00;3.00;;;;;9.19;64.12;100522.78;5013326;28;45624;-74
2022/11/20 07:09:53;;;;;;;;;5.75;5.50;;;;;9.24;64.26;100530.31;4995410;28;46838;-72
2022/11/20 07:12:18;;;;;;;;;5.00;5.00;;;;;9.30;64.17;100544.75;5013916;28;45612;-74
2022/11/20 07:14:43;;;;;;;;;5.00;5.00;;;;;9.31;64.00;100538.59;5013471;28;45483;-73
2022/11/20 07:17:09;;;;;;;;;1.00;0.00;;;;;9.31;64.25;100539.44;5013618;28;45529;-73
2022/11/20 07:19:34;;;;;;;;;3.00;3.00;;;;;9.34;64.40;100538.41;5013673;28;45666;-72
2022/11/20 07:22:00;;;;;;;;;5.50;3.50;;;;;9.33;64.11;100540.19;5013150;28;47195;-72
2022/11/20 07:24:25;;;;;;;;;5.00;4.00;;;;;9.32;63.95;100540.28;5012947;28;45653;-73
2022/11/20 07:26:50;;;;;;;;;3.00;3.00;;;;;9.33;63.86;100540.19;5013187;28;45722;-72
2022/11/20 07:29:16;;;;;;;;;2.25;2.00;;;;;9.32;63.98;100532.44;5013021;28;46520;-73
2022/11/20 07:31:42;;;;;;;;;5.00;3.00;;;;;9.31;63.92;100530.75;5013123;28;45650;-72
2022/11/20 07:37:29;;;;;;;;;3.00;3.00;;;;;9.24;63.63;100528.53;5011268;28;45826;-72
2022/11/20 07:39:54;;;;;;;;;2.50;2.00;;;;;9.30;63.75;100537.75;5012869;28;47455;-73
2022/11/20 07:42:19;;;;;;;;;2.00;2.00;;;;;9.31;63.61;100538.59;5015948;28;46349;-72
2022/11/20 07:44:45;;;;;;;;;6.00;1.50;;;;;9.30;63.76;100539.53;5016542;28;45611;-75
2022/11/20 07:47:10;;;;;;;;;3.00;3.00;;;;;9.33;63.51;100542.78;5016570;28;45470;-73
2022/11/20 07:53:02;;;;;;;;;3.00;3.00;;;;;9.28;63.36;100522.16;5016574;28;45490;-75
2022/11/20 07:55:28;;;;;;;;;2.25;2.25;;;;;9.37;63.35;100538.19;5016286;28;45512;-74
2022/11/20 07:57:57;;;;;;;;;6.75;3.00;;;;;9.38;63.01;100532.03;5017060;28;45681;-74
2022/11/20 08:00:23;;;;;;;;;7.00;5.00;;;;;9.38;63.11;100525.03;5016874;28;47614;-71
2022/11/20 08:02:48;;;;;;;;;2.75;2.75;;;;;9.40;62.95;100525.72;5016672;28;45624;-74
2022/11/20 08:05:14;;;;;;;;;4.50;2.75;;;;;9.38;62.91;100532.03;5016973;28;45519;-74
2022/11/20 08:07:41;;;;;;;;;2.00;2.00;;;;;9.35;62.95;100514.75;5016170;28;45725;-74
2022/11/20 08:10:08;;;;;;;;;2.50;2.00;;;;;9.40;62.77;100522.28;5016289;28;46401;-72
2022/11/20 08:15:17;;;;;;;;;2.25;1.50;;;;;9.38;62.78;100516.34;5001147;28;45895;-78
2022/11/20 08:17:49;;;;;;;;;5.00;5.00;;;;;9.50;62.66;100536.44;4998949;28;45810;-77
2022/11/20 08:23:36;;;;;;;;;7.00;5.00;;;;;9.51;62.70;100520.63;5015744;28;46143;-80
2022/11/20 08:26:01;;;;;;;;;5.75;5.00;;;;;9.57;62.57;100520.19;4997686;28;45545;-77
2022/11/20 08:28:27;;;;;;;;;5.25;5.25;;;;;9.59;62.81;100522.72;5015958;28;45746;-76
2022/11/20 08:30:59;;;;;;;;;4.50;3.00;;;;;9.61;62.65;100519.03;5015995;28;45580;-77
2022/11/20 08:33:24;;;;;;;;;6.00;5.25;;;;;9.64;62.72;100518.84;4998305;28;47750;-75
2022/11/20 08:35:49;;;;;;;;;2.50;2.00;;;;;9.67;62.77;100507.31;4997869;28;45917;-76
2022/11/20 08:38:15;;;;;;;;;6.00;6.00;;;;;9.71;62.92;100507.97;5015736;28;45714;-73
2022/11/20 08:40:40;;;;;;;;;6.50;5.00;;;;;9.76;63.10;100501.47;5015795;28;46591;-76
2022/11/20 08:43:05;;;;;;;;;4.00;4.00;;;;;9.79;62.83;100503.03;4997439;28;47114;-78
2022/11/20 08:45:31;;;;;;;;;6.25;5.00;;;;;9.82;62.98;100503.66;5015684;28;45548;-74
2022/11/20 08:48:00;;;;;;;;;4.75;4.75;;;;;9.86;62.69;100504.28;4997935;28;45561;-76
2022/11/20 08:53:51;;;;;;;;;5.50;5.00;;;;;9.89;62.88;100499.66;5014738;28;46208;-75
2022/11/20 08:56:17;;;;;;;;;4.00;2.25;;;;;9.90;63.01;100497.88;4997674;28;45780;-77
2022/11/20 08:58:43;;;;;;;;;7.00;7.00;;;;;9.84;63.33;100477.38;5016060;28;45566;-77
2022/11/20 09:01:09;;;;;;;;;6.75;6.75;;;;;9.95;63.20;100483.53;5015733;28;46886;-77
2022/11/20 09:03:34;;;;;;;;;6.25;6.00;;;;;9.97;63.38;100483.44;5015360;28;45586;-77
2022/11/20 09:09:21;;;;;;;;;8.00;5.75;;;;;10.01;63.67;100485.72;5015106;28;45622;-76
2022/11/20 09:11:47;;;;;;;;;10.00;7.50;;;;;10.00;63.70;100485.81;5015126;28;47419;-75
2022/11/20 09:14:12;;;;;;;;;9.00;8.50;;;;;10.04;63.74;100482.88;5014521;28;45730;-73
2022/11/20 09:16:37;;;;;;;;;8.50;7.00;;;;;10.02;63.65;100468.25;5015114;28;45804;-74
2022/11/20 09:19:03;;;;;;;;;9.25;8.25;;;;;10.04;63.78;100458.50;5015738;28;45774;-75
2022/11/20 09:21:28;;;;;;;;;8.00;8.00;;;;;10.05;63.79;100458.38;5015370;28;45649;-75
2022/11/20 09:23:54;;;;;;;;;8.00;7.00;;;;;10.10;63.92;100465.91;5015864;28;45513;-75
2022/11/20 09:26:19;;;;;;;;;5.00;3.75;;;;;10.11;63.84;100464.97;5015124;28;45617;-77
2022/11/20 09:28:44;;;;;;;;;5.25;5.25;;;;;10.11;63.94;100457.09;4997301;28;45616;-77
2022/11/20 09:31:23;;;;;;;;;8.50;7.00;;;;;10.12;63.74;100450.94;4997185;28;46258;-76
2022/11/20 09:33:50;;;;;;;;;7.00;6.25;;;;;10.07;63.78;100432.09;5015137;28;46169;-74
2022/11/20 09:39:49;;;;;;;;;10.50;9.75;;;;;10.12;64.39;100435.22;5013434;28;46171;-74
2022/11/20 09:42:41;;;;;;;;;10.50;9.75;;;;;10.13;64.22;100431.66;5014537;28;46376;-74
2022/11/20 09:45:22;;;;;;;;;6.75;6.50;;;;;10.12;64.31;100424.75;4976724;28;46941;-76
2022/11/20 09:48:09;;;;;;;;;7.00;5.75;;;;;10.16;64.37;100438.44;5014632;28;45797;-76
2022/11/20 09:54:11;;;;;;;;;9.75;9.75;;;;;10.16;64.68;100433.22;5014460;28;46075;-75
2022/11/20 09:56:42;;;;;;;;;7.50;7.50;;;;;10.11;64.68;100429.16;5014575;28;46302;-74
2022/11/20 09:59:23;;;;;;;;;7.75;6.00;;;;;10.16;65.08;100433.22;5014879;28;45578;-76
2022/11/20 10:01:49;;;;;;;;;6.50;6.00;;;;;10.16;64.69;100436.69;5014918;28;45585;-76
2022/11/20 10:04:20;;;;;;;;;10.50;8.75;;;;;10.17;64.97;100427.91;5013235;28;47604;-76
2022/11/20 10:10:16;;;;;;;;;6.75;6.00;;;;;10.15;65.47;100427.13;5014702;28;45638;-78
2022/11/20 10:12:58;;;;;;;;;7.50;6.00;;;;;10.17;65.16;100422.66;5014593;28;45719;-76
2022/11/20 10:15:23;;;;;;;;;7.75;7.00;;;;;10.18;65.51;100413.03;4996856;28;47543;-78
2022/11/20 10:18:10;;;;;;;;;7.00;6.00;;;;;10.19;65.40;100412.94;5015091;28;45540;-77
2022/11/20 10:20:49;;;;;;;;;6.00;6.00;;;;;10.19;65.59;100399.00;5014890;28;45873;-75
2022/11/20 10:23:18;;;;;;;;;5.75;5.75;;;;;10.23;66.10;100395.22;4996905;28;45588;-75
2022/11/20 10:25:55;;;;;;;;;6.00;5.50;;;;;10.11;66.26;100373.34;5014931;28;46376;-76
2022/11/20 10:28:26;;;;;;;;;6.50;6.00;;;;;10.28;66.54;100393.94;5015159;28;46005;-77
2022/11/20 10:31:00;;;;;;;;;6.75;6.00;;;;;10.31;66.53;100391.06;5014132;28;45925;-74
2022/11/20 10:33:29;;;;;;;;;5.00;5.00;;;;;10.34;66.89;100375.16;5014079;28;45814;-75
2022/11/20 10:36:16;;;;;;;;;9.00;7.75;;;;;10.42;66.74;100377.19;5014058;28;45702;-76
2022/11/20 10:39:15;;;;;;;;;13.25;10.50;;;;;10.36;67.29;100351.47;5014440;28;46109;-76
2022/11/20 10:41:42;;;;;;;;;5.00;4.50;;;;;10.51;67.32;100368.66;5013792;28;45560;-77
2022/11/20 10:45:00;;;;;;;;;6.00;5.50;;;;;10.57;67.07;100367.38;5014186;28;45476;-76
2022/11/20 10:47:03;;;;;;;;;6.25;6.25;;;;;10.61;67.65;100377.50;5013174;28;45731;-75
2022/11/20 10:49:30;;;;;;;;;6.75;6.00;;;;;10.67;67.30;100366.56;5013778;28;46381;-75
2022/11/20 10:52:16;;;;;;;;;6.00;4.25;;;;;10.65;67.20;100373.69;5013382;28;45645;-76
2022/11/20 10:55:05;;;;;;;;;6.00;4.25;;;;;10.73;67.43;100367.91;5013686;28;45917;-76
2022/11/20 10:57:43;;;;;;;;;5.75;5.75;;;;;10.74;67.66;100364.34;5013710;28;46451;-76
2022/11/20 11:00:12;;;;;;;;;5.00;4.50;;;;;10.75;67.72;100368.59;5013946;28;46421;-75
2022/11/20 11:02:49;;;;;;;;;6.00;6.00;;;;;10.76;68.00;100365.88;5013980;28;45690;-77
2022/11/20 11:08:39;;;;;;;;;2.00;0.50;;;;;10.80;68.39;100346.34;4913838;28;45822;-75
2022/11/20 11:11:22;;;;;;;;;5.00;3.00;;;;;10.79;68.80;100349.09;4914160;28;45787;-75
2022/11/20 11:13:47;;;;;;;;;3.00;2.00;;;;;10.79;68.77;100342.06;4913675;28;45737;-74
2022/11/20 11:16:24;;;;;;;;;3.00;2.50;;;;;10.78;68.60;100337.78;4915187;28;46069;-76
2022/11/20 11:18:50;;;;;;;;;3.00;3.00;;;;;10.81;69.10;100340.16;4917212;28;47367;-76
2022/11/20 11:24:37;;;;;;;;;2.00;1.25;;;;;10.79;68.87;100326.34;4916890;28;45622;-75
2022/11/20 11:27:10;;;;;;;;;2.00;1.00;;;;;10.75;68.74;100324.06;4917459;28;45912;-75
2022/11/20 11:29:36;;;;;;;;;1.50;1.00;;;;;10.69;68.81;100329.78;4917625;28;46400;-76
2022/11/20 11:32:16;;;;;;;;;2.00;1.75;;;;;10.65;69.01;100341.41;4917108;28;46001;-76
2022/11/20 11:34:42;;;;;;;;;1.75;1.75;;;;;10.62;69.05;100332.03;4916932;28;45924;-74
2022/11/20 11:40:32;;;;;;;;;1.00;1.00;;;;;10.46;69.27;100324.50;4925353;28;45886;-76
2022/11/20 11:43:01;;;;;;;;;2.00;1.00;;;;;10.46;69.20;100328.91;4935806;28;46256;-76
2022/11/20 11:45:29;;;;;;;;;2.75;2.00;;;;;10.41;69.25;100312.69;4985664;28;45654;-75
2022/11/20 11:47:58;;;;;;;;;2.00;2.00;;;;;10.39;69.07;100317.19;5016858;28;45609;-75
2022/11/20 11:50:25;;;;;;;;;2.00;1.50;;;;;10.36;69.18;100325.28;5016503;28;46376;-75
2022/11/20 11:56:14;;;;;;;;;2.00;2.00;;;;;10.20;69.39;100277.66;5016507;28;45614;-83
2022/11/20 11:58:49;;;;;;;;;2.00;2.00;;;;;10.33;69.31;100315.88;5015835;28;45633;-76
2022/11/20 12:01:38;;;;;;;;;2.00;1.50;;;;;10.34;69.70;100303.63;5015987;28;46716;-76
2022/11/20 12:04:38;;;;;;;;;2.00;2.00;;;;;10.34;69.37;100293.97;5016072;28;46668;-74
2022/11/20 12:07:15;;;;;;;;;1.75;1.75;;;;;10.27;69.36;100279.66;5015810;28;45708;-74
2022/11/20 12:09:47;;;;;;;;;2.00;2.00;;;;;10.27;69.48;100265.75;5015463;28;45576;-75
2022/11/20 12:12:20;;;;;;;;;2.25;2.00;;;;;10.31;69.43;100277.69;5015665;28;47379;-76
2022/11/20 12:14:50;;;;;;;;;2.00;1.00;;;;;10.30;69.59;100287.31;5015551;28;47471;-76
2022/11/20 12:17:17;;;;;;;;;2.00;1.00;;;;;10.28;69.87;100270.88;5015416;28;45615;-75
2022/11/20 12:19:44;;;;;;;;;2.00;2.00;;;;;10.31;69.83;100272.44;5014448;28;45788;-75
2022/11/20 12:22:41;;;;;;;;;3.00;1.00;;;;;10.31;69.58;100268.00;5014915;28;47576;-75
2022/11/20 12:25:14;;;;;;;;;2.00;2.00;;;;;10.31;69.75;100268.00;5015793;28;46009;-74
2022/11/20 12:27:58;;;;;;;;;2.75;2.75;;;;;10.38;69.75;100278.88;5014469;28;45618;-75
2022/11/20 12:30:24;;;;;;;;;3.00;2.75;;;;;10.41;69.62;100274.25;5016282;28;45788;-76
2022/11/20 12:33:24;;;;;;;;;3.00;2.00;;;;;10.45;69.77;100266.97;5015258;28;45906;-76
2022/11/20 12:36:09;;;;;;;;;2.25;2.00;;;;;10.48;69.51;100283.28;5015468;28;47523;-75
2022/11/20 12:39:03;;;;;;;;;3.50;3.00;;;;;10.47;69.85;100293.91;5015488;28;45855;-74
2022/11/20 12:47:51;;;;;;;;;4.25;4.25;;;;;10.44;70.09;100299.34;5015439;28;45973;-75
2022/11/20 12:50:35;;;;;;;;;2.00;2.00;;;;;10.41;70.39;100292.59;5015606;28;45830;-75
2022/11/20 12:56:39;;;;;;;;;4.25;3.75;;;;;10.38;70.97;100295.41;5015217;28;46033;-75
2022/11/20 12:59:07;;;;;;;;;2.75;2.75;;;;;10.39;71.40;100293.63;5015047;28;47077;-75
2022/11/20 13:01:50;;;;;;;;;6.50;2.50;;;;;10.39;71.42;100306.72;5015189;28;45667;-75
2022/11/20 13:04:35;;;;;;;;;2.00;2.00;;;;;10.33;71.77;100308.03;5015473;28;45697;-75
2022/11/20 13:07:07;;;;;;;;;3.50;3.00;;;;;10.28;72.10;100301.44;4899199;28;48498;-74
2022/11/20 13:09:39;;;;;;;;;4.75;3.00;;;;;10.20;72.54;100277.66;4915533;28;46331;-75
2022/11/20 13:12:26;;;;;;;;;4.75;3.50;;;;;10.26;72.71;100269.31;4899543;28;46572;-76
2022/11/20 13:15:11;;;;;;;;;3.00;3.00;;;;;10.28;73.23;100263.03;4915244;28;45650;-75
2022/11/20 13:17:45;;;;;;;;;4.25;3.00;;;;;10.24;72.79;100245.03;4915236;28;45715;-75
2022/11/20 13:20:16;;;;;;;;;3.00;2.00;;;;;10.37;72.73;100256.25;4915070;28;47267;-75
2022/11/20 13:22:42;;;;;;;;;5.00;3.00;;;;;10.40;72.56;100271.75;4914915;28;45635;-75
2022/11/20 13:25:22;;;;;;;;;18.25;14.25;;;;;10.44;72.44;100283.66;4915316;28;45820;-76
2022/11/20 13:27:49;;;;;;;;;2.25;2.25;;;;;10.43;72.53;100274.09;4915562;28;45798;-74
2022/11/20 13:30:18;;;;;;;;;4.50;4.00;;;;;10.48;72.44;100287.69;4914861;28;47078;-75